sensor_id;sensor_type;location;lat;lon;timestamp;temperature;humidity
796;DHT22;381;48.770;9.188;2023-08-06T00:01:52;18.70;99.90
796;DHT22;381;48.770;9.188;2023-08-06T00:06:54;18.70;99.90
796;DHT22;381;48.770;9.188;2023-08-06T00:11:58;18.70;99.90
796;DHT22;381;48.770;9.188;2023-08-06T00:17:00;18.60;99.90
796;DHT22;381;48.770;9.188;2023-08-06T00:22:02;18.50;99.90
796;DHT22;381;48.770;9.188;2023-08-06T00:27:06;18.40;99.90
796;DHT22;381;48.770;9.188;2023-08-06T00:32:08;18.30;99.90
796;DHT22;381;48.770;9.188;2023-08-06T00:37:10;18.30;99.90
796;DHT22;381;48.770;9.188;2023-08-06T00:42:15;18.20;99.90
796;DHT22;381;48.770;9.188;2023-08-06T00:47:21;18.10;99.90
796;DHT22;381;48.770;9.188;2023-08-06T00:52:23;17.90;99.90
796;DHT22;381;48.770;9.188;2023-08-06T00:57:27;17.90;99.90
796;DHT22;381;48.770;9.188;2023-08-06T01:02:29;17.80;99.90
796;DHT22;381;48.770;9.188;2023-08-06T01:07:41;17.70;99.90
796;DHT22;381;48.770;9.188;2023-08-06T01:12:54;17.70;99.90
796;DHT22;381;48.770;9.188;2023-08-06T01:17:58;17.60;99.90
796;DHT22;381;48.770;9.188;2023-08-06T01:23:02;17.50;99.90
796;DHT22;381;48.770;9.188;2023-08-06T01:28:10;17.50;99.90
796;DHT22;381;48.770;9.188;2023-08-06T01:33:17;17.50;99.90
796;DHT22;381;48.770;9.188;2023-08-06T01:38:22;17.50;99.90
796;DHT22;381;48.770;9.188;2023-08-06T01:43:25;17.50;99.90
796;DHT22;381;48.770;9.188;2023-08-06T01:48:27;17.50;99.90
796;DHT22;381;48.770;9.188;2023-08-06T01:53:31;17.50;99.90
796;DHT22;381;48.770;9.188;2023-08-06T01:58:33;17.60;99.90
796;DHT22;381;48.770;9.188;2023-08-06T02:03:35;17.60;99.90
796;DHT22;381;48.770;9.188;2023-08-06T02:08:39;17.60;99.90
796;DHT22;381;48.770;9.188;2023-08-06T02:13:41;17.60;99.90
796;DHT22;381;48.770;9.188;2023-08-06T02:18:43;17.60;99.90
796;DHT22;381;48.770;9.188;2023-08-06T02:23:47;17.50;99.90
796;DHT22;381;48.770;9.188;2023-08-06T02:28:50;17.50;99.90
796;DHT22;381;48.770;9.188;2023-08-06T02:33:52;17.40;99.90
796;DHT22;381;48.770;9.188;2023-08-06T02:38:56;17.30;99.90
796;DHT22;381;48.770;9.188;2023-08-06T02:43:58;17.30;99.90
796;DHT22;381;48.770;9.188;2023-08-06T02:49:00;17.20;99.90
796;DHT22;381;48.770;9.188;2023-08-06T02:54:03;17.10;99.90
796;DHT22;381;48.770;9.188;2023-08-06T02:59:08;17.10;99.90
796;DHT22;381;48.770;9.188;2023-08-06T03:04:20;17.00;99.90
796;DHT22;381;48.770;9.188;2023-08-06T03:09:25;17.00;99.90
796;DHT22;381;48.770;9.188;2023-08-06T03:14:27;17.00;99.90
796;DHT22;381;48.770;9.188;2023-08-06T03:19:30;17.00;99.90
796;DHT22;381;48.770;9.188;2023-08-06T03:24:34;17.00;99.90
796;DHT22;381;48.770;9.188;2023-08-06T03:29:36;17.10;99.90
796;DHT22;381;48.770;9.188;2023-08-06T03:34:39;17.10;99.90
796;DHT22;381;48.770;9.188;2023-08-06T03:39:42;17.20;99.90
796;DHT22;381;48.770;9.188;2023-08-06T03:44:45;17.20;99.90
796;DHT22;381;48.770;9.188;2023-08-06T03:49:48;17.30;99.90
796;DHT22;381;48.770;9.188;2023-08-06T03:54:53;17.30;99.90
796;DHT22;381;48.770;9.188;2023-08-06T03:59:55;17.40;99.90
796;DHT22;381;48.770;9.188;2023-08-06T04:05:01;17.40;99.90
796;DHT22;381;48.770;9.188;2023-08-06T04:10:05;17.50;99.90
796;DHT22;381;48.770;9.188;2023-08-06T04:15:08;17.30;99.90
796;DHT22;381;48.770;9.188;2023-08-06T04:20:10;17.20;99.90
796;DHT22;381;48.770;9.188;2023-08-06T04:25:13;17.10;99.90
796;DHT22;381;48.770;9.188;2023-08-06T04:30:17;17.00;99.90
796;DHT22;381;48.770;9.188;2023-08-06T04:35:19;17.00;99.90
796;DHT22;381;48.770;9.188;2023-08-06T04:40:23;17.00;99.90
796;DHT22;381;48.770;9.188;2023-08-06T04:45:25;17.10;99.90
796;DHT22;381;48.770;9.188;2023-08-06T04:50:27;17.20;99.90
796;DHT22;381;48.770;9.188;2023-08-06T04:55:30;17.20;99.90
796;DHT22;381;48.770;9.188;2023-08-06T05:00:33;17.30;99.90
796;DHT22;381;48.770;9.188;2023-08-06T05:05:35;17.30;99.90
796;DHT22;381;48.770;9.188;2023-08-06T05:10:42;17.30;99.90
796;DHT22;381;48.770;9.188;2023-08-06T05:15:44;17.30;99.90
796;DHT22;381;48.770;9.188;2023-08-06T05:20:47;17.40;99.90
796;DHT22;381;48.770;9.188;2023-08-06T05:25:50;17.40;99.90
796;DHT22;381;48.770;9.188;2023-08-06T05:30:52;17.50;99.90
796;DHT22;381;48.770;9.188;2023-08-06T05:35:54;17.50;99.90
796;DHT22;381;48.770;9.188;2023-08-06T05:40:58;17.60;99.90
796;DHT22;381;48.770;9.188;2023-08-06T05:46:00;17.80;99.90
796;DHT22;381;48.770;9.188;2023-08-06T05:51:02;18.00;99.90
796;DHT22;381;48.770;9.188;2023-08-06T05:56:05;18.20;99.90
796;DHT22;381;48.770;9.188;2023-08-06T06:01:08;18.30;99.90
796;DHT22;381;48.770;9.188;2023-08-06T06:06:10;18.30;99.90
796;DHT22;381;48.770;9.188;2023-08-06T06:11:13;18.40;99.90
796;DHT22;381;48.770;9.188;2023-08-06T06:16:15;18.50;99.90
796;DHT22;381;48.770;9.188;2023-08-06T06:21:17;18.50;99.90
796;DHT22;381;48.770;9.188;2023-08-06T06:26:21;18.50;99.90
796;DHT22;381;48.770;9.188;2023-08-06T06:31:23;18.60;99.90
796;DHT22;381;48.770;9.188;2023-08-06T06:36:25;18.60;99.90
796;DHT22;381;48.770;9.188;2023-08-06T06:41:28;18.50;99.90
796;DHT22;381;48.770;9.188;2023-08-06T06:46:38;18.50;99.90
796;DHT22;381;48.770;9.188;2023-08-06T06:51:40;18.60;99.90
796;DHT22;381;48.770;9.188;2023-08-06T06:56:44;18.70;99.90
796;DHT22;381;48.770;9.188;2023-08-06T07:01:46;18.90;99.90
796;DHT22;381;48.770;9.188;2023-08-06T07:06:48;18.90;99.90
796;DHT22;381;48.770;9.188;2023-08-06T07:11:52;18.90;99.90
796;DHT22;381;48.770;9.188;2023-08-06T07:16:54;18.70;99.90
796;DHT22;381;48.770;9.188;2023-08-06T07:21:56;18.60;99.90
796;DHT22;381;48.770;9.188;2023-08-06T07:26:59;18.30;99.90
796;DHT22;381;48.770;9.188;2023-08-06T07:32:02;18.20;99.90
796;DHT22;381;48.770;9.188;2023-08-06T07:37:04;17.90;99.90
796;DHT22;381;48.770;9.188;2023-08-06T07:42:08;17.70;99.90
796;DHT22;381;48.770;9.188;2023-08-06T07:47:10;17.70;99.90
796;DHT22;381;48.770;9.188;2023-08-06T07:52:12;17.60;99.90
796;DHT22;381;48.770;9.188;2023-08-06T07:57:15;17.80;99.90
796;DHT22;381;48.770;9.188;2023-08-06T08:02:17;17.80;99.90
796;DHT22;381;48.770;9.188;2023-08-06T08:07:20;17.90;99.90
796;DHT22;381;48.770;9.188;2023-08-06T08:12:23;18.10;99.90
796;DHT22;381;48.770;9.188;2023-08-06T08:17:25;18.30;99.90
796;DHT22;381;48.770;9.188;2023-08-06T08:22:27;18.60;99.90
796;DHT22;381;48.770;9.188;2023-08-06T08:27:31;18.90;99.90
796;DHT22;381;48.770;9.188;2023-08-06T08:32:33;19.20;99.90
796;DHT22;381;48.770;9.188;2023-08-06T08:37:36;19.60;99.90
796;DHT22;381;48.770;9.188;2023-08-06T08:42:39;20.10;99.90
796;DHT22;381;48.770;9.188;2023-08-06T08:47:42;20.50;99.90
796;DHT22;381;48.770;9.188;2023-08-06T08:52:44;20.60;99.90
796;DHT22;381;48.770;9.188;2023-08-06T08:57:48;20.60;99.90
796;DHT22;381;48.770;9.188;2023-08-06T09:02:50;20.50;99.90
796;DHT22;381;48.770;9.188;2023-08-06T09:07:53;20.40;99.90
796;DHT22;381;48.770;9.188;2023-08-06T09:12:57;20.30;99.90
796;DHT22;381;48.770;9.188;2023-08-06T09:18:09;20.20;99.90
796;DHT22;381;48.770;9.188;2023-08-06T09:23:11;20.10;99.90
796;DHT22;381;48.770;9.188;2023-08-06T09:28:14;20.30;99.90
796;DHT22;381;48.770;9.188;2023-08-06T09:33:18;20.60;99.90
796;DHT22;381;48.770;9.188;2023-08-06T09:38:20;21.00;99.90
796;DHT22;381;48.770;9.188;2023-08-06T09:43:23;21.30;99.90
796;DHT22;381;48.770;9.188;2023-08-06T09:48:25;21.30;99.90
796;DHT22;381;48.770;9.188;2023-08-06T09:53:28;21.00;99.90
796;DHT22;381;48.770;9.188;2023-08-06T09:58:32;20.90;99.90
796;DHT22;381;48.770;9.188;2023-08-06T10:03:35;20.80;99.90
796;DHT22;381;48.770;9.188;2023-08-06T10:08:38;20.70;99.90
796;DHT22;381;48.770;9.188;2023-08-06T10:13:44;20.50;99.90
796;DHT22;381;48.770;9.188;2023-08-06T10:18:47;20.20;99.90
796;DHT22;381;48.770;9.188;2023-08-06T10:23:54;20.00;99.90
796;DHT22;381;48.770;9.188;2023-08-06T10:28:57;19.90;99.90
796;DHT22;381;48.770;9.188;2023-08-06T10:33:59;19.70;99.90
796;DHT22;381;48.770;9.188;2023-08-06T10:39:02;19.50;99.90
796;DHT22;381;48.770;9.188;2023-08-06T10:44:07;19.30;99.90
796;DHT22;381;48.770;9.188;2023-08-06T10:49:11;19.30;99.90
796;DHT22;381;48.770;9.188;2023-08-06T10:54:15;19.20;99.90
796;DHT22;381;48.770;9.188;2023-08-06T10:59:20;19.20;99.90
796;DHT22;381;48.770;9.188;2023-08-06T11:04:22;19.20;99.90
796;DHT22;381;48.770;9.188;2023-08-06T11:09:25;19.40;99.90
796;DHT22;381;48.770;9.188;2023-08-06T11:14:30;19.50;99.90
796;DHT22;381;48.770;9.188;2023-08-06T11:19:33;19.50;99.90
796;DHT22;381;48.770;9.188;2023-08-06T11:24:37;19.60;99.90
796;DHT22;381;48.770;9.188;2023-08-06T11:29:41;19.60;99.90
796;DHT22;381;48.770;9.188;2023-08-06T11:34:43;19.60;99.90
796;DHT22;381;48.770;9.188;2023-08-06T11:39:47;19.60;99.90
796;DHT22;381;48.770;9.188;2023-08-06T11:44:51;19.60;99.90
796;DHT22;381;48.770;9.188;2023-08-06T11:49:53;19.80;99.90
796;DHT22;381;48.770;9.188;2023-08-06T11:55:02;19.70;99.90
796;DHT22;381;48.770;9.188;2023-08-06T12:00:10;19.60;99.90
796;DHT22;381;48.770;9.188;2023-08-06T12:05:19;19.50;99.90
796;DHT22;381;48.770;9.188;2023-08-06T12:10:26;19.30;99.90
796;DHT22;381;48.770;9.188;2023-08-06T12:15:30;19.10;99.90
796;DHT22;381;48.770;9.188;2023-08-06T12:20:32;19.00;99.90
796;DHT22;381;48.770;9.188;2023-08-06T12:25:34;18.90;99.90
796;DHT22;381;48.770;9.188;2023-08-06T12:30:37;18.90;99.90
796;DHT22;381;48.770;9.188;2023-08-06T12:35:42;18.90;99.90
796;DHT22;381;48.770;9.188;2023-08-06T12:40:44;19.10;99.90
796;DHT22;381;48.770;9.188;2023-08-06T12:45:47;19.30;99.90
796;DHT22;381;48.770;9.188;2023-08-06T12:50:49;19.50;99.90
796;DHT22;381;48.770;9.188;2023-08-06T12:55:52;19.60;99.90
796;DHT22;381;48.770;9.188;2023-08-06T13:00:56;19.90;99.90
796;DHT22;381;48.770;9.188;2023-08-06T13:05:58;20.10;99.90
796;DHT22;381;48.770;9.188;2023-08-06T13:11:00;20.30;99.90
796;DHT22;381;48.770;9.188;2023-08-06T13:16:04;20.30;99.90
796;DHT22;381;48.770;9.188;2023-08-06T13:21:06;20.30;99.90
796;DHT22;381;48.770;9.188;2023-08-06T13:26:08;20.30;99.90
796;DHT22;381;48.770;9.188;2023-08-06T13:31:11;20.40;99.90
796;DHT22;381;48.770;9.188;2023-08-06T13:36:13;20.40;99.90
796;DHT22;381;48.770;9.188;2023-08-06T13:41:16;20.40;99.90
796;DHT22;381;48.770;9.188;2023-08-06T13:46:19;20.40;99.90
796;DHT22;381;48.770;9.188;2023-08-06T13:51:21;20.40;99.40
796;DHT22;381;48.770;9.188;2023-08-06T13:56:23;20.30;99.40
796;DHT22;381;48.770;9.188;2023-08-06T14:01:27;20.20;99.50
796;DHT22;381;48.770;9.188;2023-08-06T14:06:29;20.20;99.80
796;DHT22;381;48.770;9.188;2023-08-06T14:11:31;20.20;99.90
796;DHT22;381;48.770;9.188;2023-08-06T14:16:34;20.10;99.60
796;DHT22;381;48.770;9.188;2023-08-06T14:21:37;20.10;98.80
796;DHT22;381;48.770;9.188;2023-08-06T14:26:39;20.10;99.60
796;DHT22;381;48.770;9.188;2023-08-06T14:31:43;20.20;99.20
796;DHT22;381;48.770;9.188;2023-08-06T14:36:45;20.30;98.70
796;DHT22;381;48.770;9.188;2023-08-06T14:41:47;20.40;98.90
796;DHT22;381;48.770;9.188;2023-08-06T14:46:50;20.40;98.50
796;DHT22;381;48.770;9.188;2023-08-06T14:51:52;20.10;98.60
796;DHT22;381;48.770;9.188;2023-08-06T14:56:54;19.80;99.70
796;DHT22;381;48.770;9.188;2023-08-06T15:01:58;19.70;99.90
796;DHT22;381;48.770;9.188;2023-08-06T15:07:00;19.50;99.90
796;DHT22;381;48.770;9.188;2023-08-06T15:12:02;19.30;99.90
796;DHT22;381;48.770;9.188;2023-08-06T15:17:06;19.20;99.90
796;DHT22;381;48.770;9.188;2023-08-06T15:22:08;19.20;99.90
796;DHT22;381;48.770;9.188;2023-08-06T15:27:12;19.20;99.90
796;DHT22;381;48.770;9.188;2023-08-06T15:32:16;19.30;99.90
796;DHT22;381;48.770;9.188;2023-08-06T15:37:18;19.50;99.90
796;DHT22;381;48.770;9.188;2023-08-06T15:42:20;19.60;99.90
796;DHT22;381;48.770;9.188;2023-08-06T15:47:24;19.70;99.90
796;DHT22;381;48.770;9.188;2023-08-06T15:52:26;19.70;99.90
796;DHT22;381;48.770;9.188;2023-08-06T15:57:28;19.80;99.90
796;DHT22;381;48.770;9.188;2023-08-06T16:02:31;19.80;99.10
796;DHT22;381;48.770;9.188;2023-08-06T16:07:33;19.80;99.30
796;DHT22;381;48.770;9.188;2023-08-06T16:12:36;19.80;99.30
796;DHT22;381;48.770;9.188;2023-08-06T16:17:40;19.80;99.30
796;DHT22;381;48.770;9.188;2023-08-06T16:22:42;19.80;98.60
796;DHT22;381;48.770;9.188;2023-08-06T16:27:44;19.80;98.20
796;DHT22;381;48.770;9.188;2023-08-06T16:32:47;19.80;97.30
796;DHT22;381;48.770;9.188;2023-08-06T16:37:49;19.80;97.40
796;DHT22;381;48.770;9.188;2023-08-06T16:42:51;19.70;97.10
796;DHT22;381;48.770;9.188;2023-08-06T16:47:55;19.50;97.80
796;DHT22;381;48.770;9.188;2023-08-06T16:52:57;19.30;97.70
796;DHT22;381;48.770;9.188;2023-08-06T16:57:59;19.20;97.60
796;DHT22;381;48.770;9.188;2023-08-06T17:03:03;19.00;99.90
796;DHT22;381;48.770;9.188;2023-08-06T17:08:05;18.80;99.90
796;DHT22;381;48.770;9.188;2023-08-06T17:13:07;18.40;99.90
796;DHT22;381;48.770;9.188;2023-08-06T17:18:11;18.10;99.90
796;DHT22;381;48.770;9.188;2023-08-06T17:23:16;18.00;99.90
796;DHT22;381;48.770;9.188;2023-08-06T17:28:19;18.00;99.90
796;DHT22;381;48.770;9.188;2023-08-06T17:33:22;17.90;99.90
796;DHT22;381;48.770;9.188;2023-08-06T17:38:24;18.00;99.90
796;DHT22;381;48.770;9.188;2023-08-06T17:43:26;18.10;99.90
796;DHT22;381;48.770;9.188;2023-08-06T17:48:30;18.10;99.90
796;DHT22;381;48.770;9.188;2023-08-06T17:53:32;18.10;99.90
796;DHT22;381;48.770;9.188;2023-08-06T17:58:34;18.10;99.90
796;DHT22;381;48.770;9.188;2023-08-06T18:03:37;18.10;99.90
796;DHT22;381;48.770;9.188;2023-08-06T18:08:39;18.10;99.90
796;DHT22;381;48.770;9.188;2023-08-06T18:13:41;18.10;99.90
796;DHT22;381;48.770;9.188;2023-08-06T18:18:45;18.00;99.90
796;DHT22;381;48.770;9.188;2023-08-06T18:23:47;17.90;99.90
796;DHT22;381;48.770;9.188;2023-08-06T18:28:49;17.70;99.90
796;DHT22;381;48.770;9.188;2023-08-06T18:33:53;17.60;99.90
796;DHT22;381;48.770;9.188;2023-08-06T18:38:55;17.50;99.90
796;DHT22;381;48.770;9.188;2023-08-06T18:43:57;17.50;99.90
796;DHT22;381;48.770;9.188;2023-08-06T18:49:00;17.40;99.90
796;DHT22;381;48.770;9.188;2023-08-06T18:54:02;17.20;99.90
796;DHT22;381;48.770;9.188;2023-08-06T18:59:05;17.20;99.90
796;DHT22;381;48.770;9.188;2023-08-06T19:04:09;17.10;99.90
796;DHT22;381;48.770;9.188;2023-08-06T19:09:11;17.10;99.90
796;DHT22;381;48.770;9.188;2023-08-06T19:14:14;17.10;99.90
796;DHT22;381;48.770;9.188;2023-08-06T19:19:18;17.10;99.90
796;DHT22;381;48.770;9.188;2023-08-06T19:24:20;17.10;99.90
796;DHT22;381;48.770;9.188;2023-08-06T19:29:22;17.20;99.90
796;DHT22;381;48.770;9.188;2023-08-06T19:34:26;17.20;99.90
796;DHT22;381;48.770;9.188;2023-08-06T19:39:29;17.20;99.90
796;DHT22;381;48.770;9.188;2023-08-06T19:44:31;17.10;99.90
796;DHT22;381;48.770;9.188;2023-08-06T19:49:36;17.10;99.90
796;DHT22;381;48.770;9.188;2023-08-06T19:54:38;17.10;99.90
796;DHT22;381;48.770;9.188;2023-08-06T19:59:40;17.10;99.90
796;DHT22;381;48.770;9.188;2023-08-06T20:04:44;17.00;99.90
796;DHT22;381;48.770;9.188;2023-08-06T20:09:46;17.00;99.90
796;DHT22;381;48.770;9.188;2023-08-06T20:14:48;17.00;99.90
796;DHT22;381;48.770;9.188;2023-08-06T20:19:52;17.10;99.90
796;DHT22;381;48.770;9.188;2023-08-06T20:24:54;17.00;99.90
796;DHT22;381;48.770;9.188;2023-08-06T20:29:56;17.00;99.90
796;DHT22;381;48.770;9.188;2023-08-06T20:34:59;16.90;99.90
796;DHT22;381;48.770;9.188;2023-08-06T20:40:01;16.90;99.90
796;DHT22;381;48.770;9.188;2023-08-06T20:45:04;16.90;99.90
796;DHT22;381;48.770;9.188;2023-08-06T20:50:08;16.80;99.90
796;DHT22;381;48.770;9.188;2023-08-06T20:55:13;16.70;99.90
796;DHT22;381;48.770;9.188;2023-08-06T21:00:15;16.60;99.90
796;DHT22;381;48.770;9.188;2023-08-06T21:05:19;16.60;99.90
796;DHT22;381;48.770;9.188;2023-08-06T21:10:21;16.50;99.90
796;DHT22;381;48.770;9.188;2023-08-06T21:15:23;16.50;99.90
796;DHT22;381;48.770;9.188;2023-08-06T21:20:27;16.40;99.90
796;DHT22;381;48.770;9.188;2023-08-06T21:25:29;16.30;99.90
796;DHT22;381;48.770;9.188;2023-08-06T21:30:31;16.30;99.90
796;DHT22;381;48.770;9.188;2023-08-06T21:35:34;16.20;99.90
796;DHT22;381;48.770;9.188;2023-08-06T21:40:36;16.10;99.90
796;DHT22;381;48.770;9.188;2023-08-06T21:45:39;16.10;99.90
796;DHT22;381;48.770;9.188;2023-08-06T21:50:42;16.00;99.90
796;DHT22;381;48.770;9.188;2023-08-06T21:55:44;15.80;99.90
796;DHT22;381;48.770;9.188;2023-08-06T22:00:46;15.80;99.90
796;DHT22;381;48.770;9.188;2023-08-06T22:05:53;15.70;99.90
796;DHT22;381;48.770;9.188;2023-08-06T22:10:56;15.70;99.90
796;DHT22;381;48.770;9.188;2023-08-06T22:15:58;15.70;99.90
796;DHT22;381;48.770;9.188;2023-08-06T22:21:05;15.70;99.90
796;DHT22;381;48.770;9.188;2023-08-06T22:26:07;15.80;99.90
796;DHT22;381;48.770;9.188;2023-08-06T22:31:09;15.80;99.90
796;DHT22;381;48.770;9.188;2023-08-06T22:36:17;15.70;99.90
796;DHT22;381;48.770;9.188;2023-08-06T22:41:19;15.80;99.90
796;DHT22;381;48.770;9.188;2023-08-06T22:46:23;15.80;99.90
796;DHT22;381;48.770;9.188;2023-08-06T22:51:27;15.70;99.90
796;DHT22;381;48.770;9.188;2023-08-06T22:56:29;15.70;99.90
796;DHT22;381;48.770;9.188;2023-08-06T23:01:32;15.70;99.90
796;DHT22;381;48.770;9.188;2023-08-06T23:06:35;15.70;99.90
796;DHT22;381;48.770;9.188;2023-08-06T23:11:37;15.70;99.90
796;DHT22;381;48.770;9.188;2023-08-06T23:16:39;15.60;99.90
796;DHT22;381;48.770;9.188;2023-08-06T23:21:43;15.60;99.90
796;DHT22;381;48.770;9.188;2023-08-06T23:26:45;15.70;99.90
796;DHT22;381;48.770;9.188;2023-08-06T23:31:47;15.70;99.90
796;DHT22;381;48.770;9.188;2023-08-06T23:36:50;15.70;99.90
796;DHT22;381;48.770;9.188;2023-08-06T23:41:52;15.70;99.90
796;DHT22;381;48.770;9.188;2023-08-06T23:46:54;15.70;99.90
796;DHT22;381;48.770;9.188;2023-08-06T23:51:58;15.70;99.90
796;DHT22;381;48.770;9.188;2023-08-06T23:57:00;15.70;99.90
